createdAt,value
2022-09-26T00:01:44.281Z,17.85
2022-09-26T00:04:21.201Z,16.27
2022-09-26T00:06:52.283Z,15.25
2022-09-26T00:09:20.632Z,16.00
2022-09-26T00:11:49.104Z,15.32
2022-09-26T00:14:20.356Z,16.35
2022-09-26T00:16:50.343Z,15.60
2022-09-26T00:19:19.181Z,16.80
2022-09-26T00:21:47.889Z,16.40
2022-09-26T00:24:16.607Z,18.55
2022-09-26T00:26:44.796Z,17.85
2022-09-26T00:29:14.622Z,16.85
2022-09-26T00:31:45.147Z,19.45
2022-09-26T00:34:16.282Z,18.33
2022-09-26T00:36:44.583Z,18.45
2022-09-26T00:39:14.720Z,21.23
2022-09-26T00:41:43.356Z,21.30
2022-09-26T00:44:36.035Z,20.45
2022-09-26T00:47:05.346Z,20.98
2022-09-26T00:49:37.388Z,22.00
2022-09-26T00:52:11.264Z,21.60
2022-09-26T00:54:45.458Z,21.75
2022-09-26T00:57:20.347Z,21.42
2022-09-26T00:59:52.208Z,20.88
2022-09-26T01:02:20.718Z,21.77
2022-09-26T01:04:50.597Z,22.05
2022-09-26T01:07:21.426Z,23.00
2022-09-26T01:09:50.440Z,22.10
2022-09-26T01:12:19.797Z,21.63
2022-09-26T01:14:49.872Z,23.00
2022-09-26T01:17:18.512Z,22.73
2022-09-26T01:19:58.897Z,21.23
2022-09-26T01:22:51.825Z,20.15
2022-09-26T01:25:25.289Z,20.38
2022-09-26T01:28:17.937Z,20.95
2022-09-26T01:30:52.944Z,20.92
2022-09-26T01:33:54.149Z,19.77
2022-09-26T01:36:59.118Z,21.20
2022-09-26T01:39:40.658Z,19.42
2022-09-26T01:42:18.193Z,21.67
2022-09-26T01:44:51.327Z,19.20
2022-09-26T01:47:27.733Z,20.27
2022-09-26T01:50:02.341Z,17.25
2022-09-26T01:52:37.371Z,17.73
2022-09-26T01:55:11.274Z,17.13
2022-09-26T01:57:44.099Z,18.33
2022-09-26T02:00:13.765Z,17.02
2022-09-26T02:02:45.230Z,16.15
2022-09-26T02:05:19.856Z,15.82
2022-09-26T02:07:54.059Z,15.77
2022-09-26T02:10:27.631Z,14.32
2022-09-26T02:13:01.352Z,12.82
2022-09-26T02:15:32.669Z,12.02
2022-09-26T02:18:08.844Z,10.75
2022-09-26T02:20:39.504Z,12.15
2022-09-26T02:23:08.874Z,10.57
2022-09-26T02:25:37.686Z,9.27
2022-09-26T02:28:06.483Z,9.48
2022-09-26T02:30:34.876Z,9.73
2022-09-26T02:33:04.761Z,9.13
2022-09-26T02:35:50.137Z,7.82
2022-09-26T02:38:18.676Z,7.85
2022-09-26T02:40:52.553Z,7.10
2022-09-26T02:43:52.991Z,7.05
2022-09-26T02:46:41.880Z,8.13
2022-09-26T02:49:23.026Z,7.43
2022-09-26T02:52:09.228Z,6.45
2022-09-26T02:54:44.577Z,5.88
2022-09-26T02:57:23.031Z,6.60
2022-09-26T02:59:59.809Z,5.18
2022-09-26T03:02:35.304Z,6.25
2022-09-26T03:05:10.203Z,6.38
2022-09-26T03:07:43.754Z,6.25
2022-09-26T03:10:13.547Z,6.43
2022-09-26T03:12:44.503Z,6.03
2022-09-26T03:15:13.758Z,5.30
2022-09-26T03:17:46.390Z,7.63
2022-09-26T03:20:17.942Z,5.95
2022-09-26T03:22:46.695Z,5.53
2022-09-26T03:25:18.624Z,5.43
2022-09-26T03:27:47.972Z,5.32
2022-09-26T03:30:18.118Z,5.22
2022-09-26T03:32:46.733Z,5.22
2022-09-26T03:35:17.265Z,4.28
2022-09-26T03:37:45.377Z,4.53
2022-09-26T03:40:14.611Z,4.32
2022-09-26T03:42:42.883Z,4.07
2022-09-26T03:45:12.082Z,4.20
2022-09-26T03:47:42.093Z,3.70
2022-09-26T03:50:11.148Z,3.35
2022-09-26T03:52:40.724Z,4.65
2022-09-26T03:55:09.399Z,4.43
2022-09-26T03:57:37.658Z,3.67
2022-09-26T04:00:08.310Z,3.60
2022-09-26T04:02:36.536Z,3.20
2022-09-26T04:05:05.341Z,2.97
2022-09-26T04:07:33.442Z,3.33
2022-09-26T04:10:03.238Z,3.00
2022-09-26T04:12:32.528Z,3.33
2022-09-26T04:15:00.680Z,3.40
2022-09-26T04:17:30.248Z,3.22
2022-09-26T04:19:58.325Z,3.47
2022-09-26T04:22:27.289Z,3.35
2022-09-26T04:24:55.422Z,4.13
2022-09-26T04:27:28.353Z,3.92
2022-09-26T04:29:57.413Z,4.05
2022-09-26T04:32:25.410Z,4.18
2022-09-26T04:34:53.521Z,4.30
2022-09-26T04:37:22.017Z,3.90
2022-09-26T04:39:50.115Z,4.07
2022-09-26T04:42:18.328Z,4.55
2022-09-26T04:44:48.340Z,4.22
2022-09-26T04:47:17.133Z,3.97
2022-09-26T04:49:45.345Z,4.05
2022-09-26T04:52:15.236Z,4.35
2022-09-26T04:54:44.763Z,3.95
2022-09-26T04:57:19.365Z,5.05
2022-09-26T04:59:49.537Z,4.90
2022-09-26T05:02:20.208Z,6.22
2022-09-26T05:04:48.544Z,5.70
2022-09-26T05:07:18.521Z,4.82
2022-09-26T05:09:46.723Z,6.60
2022-09-26T05:12:15.401Z,4.78
2022-09-26T05:14:44.437Z,5.43
2022-09-26T05:17:14.188Z,6.00
2022-09-26T05:19:43.086Z,6.32
2022-09-26T05:22:11.505Z,6.10
2022-09-26T05:24:57.065Z,7.05
2022-09-26T05:27:25.235Z,6.55
2022-09-26T05:29:57.136Z,7.55
2022-09-26T05:32:29.183Z,8.63
2022-09-26T05:34:57.754Z,8.07
2022-09-26T05:37:25.835Z,7.65
2022-09-26T05:40:11.170Z,9.35
2022-09-26T05:42:39.476Z,10.20
2022-09-26T05:45:09.453Z,10.15
2022-09-26T05:47:39.523Z,9.57
2022-09-26T05:50:10.386Z,10.23
2022-09-26T05:52:39.289Z,11.73
2022-09-26T05:55:08.371Z,12.93
2022-09-26T05:57:36.552Z,11.40
2022-09-26T06:00:05.966Z,12.77
2022-09-26T06:02:35.034Z,11.90
2022-09-26T06:05:05.145Z,15.30
2022-09-26T06:07:34.014Z,13.63
2022-09-26T06:10:03.436Z,14.85
2022-09-26T06:12:31.540Z,14.70
2022-09-26T06:14:59.676Z,14.43
2022-09-26T06:17:27.784Z,14.90
2022-09-26T06:19:56.200Z,15.52
2022-09-26T06:22:26.279Z,14.90
2022-09-26T06:24:54.551Z,14.50
2022-09-26T06:27:24.878Z,12.60
2022-09-26T06:29:52.953Z,13.77
2022-09-26T06:32:21.092Z,15.18
2022-09-26T06:34:49.218Z,13.00
2022-09-26T06:37:17.316Z,14.73
2022-09-26T06:39:46.978Z,14.55
2022-09-26T06:42:15.156Z,13.40
2022-09-26T06:44:43.316Z,13.35
2022-09-26T06:47:12.701Z,12.25
2022-09-26T06:49:40.936Z,13.57
2022-09-26T06:52:11.343Z,14.00
2022-09-26T06:54:39.430Z,13.07
2022-09-26T06:57:14.755Z,11.57
2022-09-26T06:59:43.364Z,12.10
2022-09-26T07:02:12.451Z,11.35
2022-09-26T07:04:40.702Z,13.35
2022-09-26T07:07:08.794Z,11.38
2022-09-26T07:09:37.109Z,10.73
2022-09-26T07:12:14.960Z,9.90
2022-09-26T07:14:47.120Z,11.05
2022-09-26T07:17:18.831Z,11.02
2022-09-26T07:19:51.931Z,9.93
2022-09-26T07:22:20.389Z,10.13
2022-09-26T07:24:48.965Z,10.63
2022-09-26T07:27:17.971Z,10.10
2022-09-26T07:29:49.029Z,10.90
2022-09-26T07:32:17.199Z,10.60
2022-09-26T07:34:45.348Z,10.50
2022-09-26T07:37:13.723Z,9.55
2022-09-26T07:39:41.797Z,9.10
2022-09-26T07:42:10.306Z,8.05
2022-09-26T07:45:20.529Z,8.35
2022-09-26T07:47:45.357Z,9.10
2022-09-26T07:50:15.105Z,8.50
2022-09-26T07:52:44.590Z,7.93
2022-09-26T07:55:15.543Z,8.02
2022-09-26T07:57:44.194Z,7.80
2022-09-26T08:00:16.949Z,7.90
2022-09-26T08:02:47.759Z,7.88
2022-09-26T08:05:20.356Z,7.70
2022-09-26T08:07:49.983Z,6.53
2022-09-26T08:10:22.219Z,7.72
2022-09-26T08:12:50.596Z,6.30
2022-09-26T08:15:18.970Z,6.50
2022-09-26T08:17:48.528Z,6.80
2022-09-26T08:20:16.882Z,7.72
2022-09-26T08:22:45.130Z,7.20
2022-09-26T08:25:13.289Z,6.78
2022-09-26T08:27:43.847Z,8.07
2022-09-26T08:30:12.865Z,6.65
2022-09-26T08:32:41.074Z,7.22
2022-09-26T08:35:12.231Z,7.20
2022-09-26T08:37:40.629Z,7.45
2022-09-26T08:40:09.633Z,7.82
2022-09-26T08:42:48.229Z,7.57
2022-09-26T08:45:57.166Z,7.50
2022-09-26T08:48:44.329Z,6.95
2022-09-26T08:51:29.227Z,6.90
2022-09-26T08:54:01.846Z,6.28
2022-09-26T08:56:34.324Z,6.38
2022-09-26T08:59:05.765Z,5.75
2022-09-26T09:01:39.485Z,5.80
2022-09-26T09:04:14.752Z,6.78
2022-09-26T09:06:45.060Z,5.53
2022-09-26T09:09:17.408Z,5.57
2022-09-26T09:11:58.985Z,5.22
2022-09-26T09:14:44.636Z,5.90
2022-09-26T09:17:23.568Z,6.13
2022-09-26T09:20:01.701Z,4.97
2022-09-26T09:22:48.926Z,5.82
2022-09-26T09:25:22.046Z,4.90
2022-09-26T09:28:08.603Z,5.10
2022-09-26T09:30:42.574Z,4.82
2022-09-26T09:33:15.912Z,3.92
2022-09-26T09:35:48.216Z,4.15
2022-09-26T09:38:20.267Z,4.18
2022-09-26T09:40:58.065Z,4.05
2022-09-26T09:43:32.711Z,3.95
2022-09-26T09:46:06.527Z,3.40
2022-09-26T09:48:35.130Z,3.58
2022-09-26T09:51:30.092Z,2.60
2022-09-26T09:54:28.197Z,2.95
2022-09-26T09:57:18.999Z,2.20
2022-09-26T10:00:03.839Z,2.15
2022-09-26T10:02:40.528Z,2.40
2022-09-26T10:05:23.211Z,2.85
2022-09-26T10:07:51.686Z,1.88
2022-09-26T10:10:26.129Z,2.10
2022-09-26T10:12:55.929Z,1.90
2022-09-26T10:15:27.508Z,2.05
2022-09-26T10:18:23.565Z,2.40
2022-09-26T10:20:55.466Z,2.10
2022-09-26T10:23:31.081Z,2.17
2022-09-26T10:26:03.573Z,2.03
2022-09-26T10:28:37.866Z,1.92
2022-09-26T10:31:10.036Z,1.98
2022-09-26T10:33:44.795Z,2.13
2022-09-26T10:36:20.877Z,1.98
2022-09-26T10:39:12.248Z,1.90
2022-09-26T10:41:46.265Z,2.00
2022-09-26T10:44:26.240Z,1.98
2022-09-26T10:46:58.218Z,1.80
2022-09-26T10:49:32.266Z,2.13
2022-09-26T10:52:11.699Z,1.77
2022-09-26T10:54:47.287Z,1.95
2022-09-26T10:57:28.219Z,1.80
2022-09-26T10:59:58.643Z,2.70
2022-09-26T11:02:28.456Z,1.85
2022-09-26T11:05:18.136Z,1.92
2022-09-26T11:07:49.494Z,1.83
2022-09-26T11:10:25.750Z,1.85
2022-09-26T11:13:01.293Z,1.80
2022-09-26T11:15:30.204Z,1.60
2022-09-26T11:17:59.018Z,2.03
2022-09-26T11:20:46.843Z,1.80
2022-09-26T11:23:25.029Z,1.65
2022-09-26T11:26:01.297Z,2.00
2022-09-26T11:28:36.892Z,1.88
2022-09-26T11:31:09.973Z,1.60
2022-09-26T11:33:45.916Z,1.50
2022-09-26T11:36:39.670Z,1.73
2022-09-26T11:39:25.108Z,1.48
2022-09-26T11:42:07.471Z,1.80
2022-09-26T11:44:55.687Z,1.83
2022-09-26T11:47:51.051Z,1.70
2022-09-26T11:50:35.727Z,1.52
2022-09-26T11:53:25.154Z,1.75
2022-09-26T11:56:08.207Z,1.60
2022-09-26T11:58:44.836Z,1.90
2022-09-26T12:01:27.408Z,1.65
2022-09-26T12:04:16.291Z,1.48
2022-09-26T12:06:54.152Z,2.17
2022-09-26T12:09:45.081Z,1.90
2022-09-26T12:12:19.684Z,1.67
2022-09-26T12:15:15.414Z,2.00
2022-09-26T12:17:59.669Z,1.92
2022-09-26T12:20:38.555Z,2.35
2022-09-26T12:23:17.712Z,2.00
2022-09-26T12:26:01.389Z,1.88
2022-09-26T12:28:52.830Z,1.90
2022-09-26T12:31:31.973Z,1.92
2022-09-26T12:34:17.401Z,2.30
2022-09-26T12:37:01.868Z,1.50
2022-09-26T12:39:51.036Z,2.30
2022-09-26T12:42:38.102Z,1.77
2022-09-26T12:45:30.276Z,1.90
2022-09-26T12:48:20.189Z,2.13
2022-09-26T12:51:02.683Z,1.98
2022-09-26T12:54:10.491Z,1.63
2022-09-26T12:56:49.631Z,1.90
2022-09-26T12:59:38.566Z,2.42
2022-09-26T13:02:32.601Z,2.28
2022-09-26T13:05:24.890Z,1.92
2022-09-26T13:08:05.169Z,2.30
2022-09-26T13:10:42.311Z,1.70
2022-09-26T13:13:50.472Z,2.40
2022-09-26T13:16:34.216Z,2.08
2022-09-26T13:19:13.626Z,2.22
2022-09-26T13:21:45.882Z,1.92
2022-09-26T13:24:22.377Z,1.70
2022-09-26T13:26:54.961Z,1.85
2022-09-26T13:29:28.052Z,1.95
2022-09-26T13:32:05.446Z,2.00
2022-09-26T13:34:40.582Z,1.95
2022-09-26T13:37:17.691Z,1.80
2022-09-26T13:39:52.779Z,1.80
2022-09-26T13:42:25.678Z,2.67
2022-09-26T13:45:08.604Z,1.70
2022-09-26T13:47:42.281Z,1.60
2022-09-26T13:50:23.284Z,2.10
2022-09-26T13:53:04.196Z,1.50
2022-09-26T13:55:36.033Z,2.40
2022-09-26T13:58:08.093Z,2.13
2022-09-26T14:00:53.340Z,1.80
2022-09-26T14:03:41.706Z,1.75
2022-09-26T14:06:31.391Z,1.40
2022-09-26T14:09:19.519Z,1.20
2022-09-26T14:11:51.519Z,1.67
2022-09-26T14:14:26.336Z,1.63
2022-09-26T14:16:56.794Z,1.70
2022-09-26T14:19:36.976Z,1.63
2022-09-26T14:22:07.189Z,1.90
2022-09-26T14:24:37.699Z,2.08
2022-09-26T14:27:44.457Z,1.63
2022-09-26T14:30:31.066Z,1.75
2022-09-26T14:33:05.872Z,1.60
2022-09-26T14:35:36.216Z,1.50
2022-09-26T14:38:10.863Z,1.70
2022-09-26T14:40:39.267Z,1.83
2022-09-26T14:43:14.972Z,1.38
2022-09-26T14:45:49.718Z,1.70
2022-09-26T14:48:32.238Z,1.27
2022-09-26T14:51:04.941Z,1.70
2022-09-26T14:53:39.528Z,1.70
2022-09-26T14:56:11.475Z,1.70
2022-09-26T14:59:15.536Z,1.42
2022-09-26T15:01:44.673Z,1.58
2022-09-26T15:04:18.337Z,1.92
2022-09-26T15:06:50.020Z,1.50
2022-09-26T15:09:23.927Z,1.42
2022-09-26T15:11:58.368Z,1.30
2022-09-26T15:14:38.864Z,1.70
2022-09-26T15:17:09.055Z,1.50
2022-09-26T15:19:42.808Z,1.73
2022-09-26T15:22:14.983Z,1.27
2022-09-26T15:24:43.476Z,1.20
2022-09-26T15:27:15.065Z,1.20
2022-09-26T15:29:47.489Z,1.50
2022-09-26T15:32:20.329Z,1.40
2022-09-26T15:34:48.801Z,1.10
2022-09-26T15:37:23.783Z,1.45
2022-09-26T15:39:52.682Z,1.25
2022-09-26T15:42:44.175Z,1.30
2022-09-26T15:45:30.540Z,1.50
2022-09-26T15:48:01.301Z,1.75
2022-09-26T15:50:37.460Z,1.23
2022-09-26T15:53:10.186Z,1.40
2022-09-26T15:55:45.185Z,1.77
2022-09-26T15:58:18.089Z,1.50
2022-09-26T16:00:55.619Z,1.55
2022-09-26T16:03:40.572Z,1.42
2022-09-26T16:06:22.360Z,1.67
2022-09-26T16:08:54.534Z,1.20
2022-09-26T16:11:23.921Z,1.42
2022-09-26T16:13:53.732Z,1.33
2022-09-26T16:16:32.091Z,1.40
2022-09-26T16:19:03.230Z,1.58
2022-09-26T16:21:34.161Z,1.38
2022-09-26T16:24:23.749Z,1.30
2022-09-26T16:26:53.510Z,1.30
2022-09-26T16:29:31.380Z,1.80
2022-09-26T16:32:01.697Z,1.75
2022-09-26T16:34:30.483Z,2.28
2022-09-26T16:36:59.292Z,2.13
2022-09-26T16:39:29.347Z,1.40
2022-09-26T16:42:02.645Z,1.50
2022-09-26T16:44:36.405Z,1.50
2022-09-26T16:47:09.192Z,1.60
2022-09-26T16:49:48.496Z,1.75
2022-09-26T16:52:29.300Z,2.15
2022-09-26T16:54:58.909Z,1.92
2022-09-26T16:57:29.590Z,1.67
2022-09-26T17:00:15.186Z,1.88
2022-09-26T17:02:45.248Z,1.83
2022-09-26T17:05:19.437Z,1.55
2022-09-26T17:07:48.584Z,1.92
2022-09-26T17:10:18.279Z,1.95
2022-09-26T17:12:51.592Z,2.33
2022-09-26T17:15:24.396Z,1.98
2022-09-26T17:17:54.401Z,2.55
2022-09-26T17:20:23.757Z,1.73
2022-09-26T17:22:53.394Z,2.10
2022-09-26T17:25:23.651Z,2.53
2022-09-26T17:27:55.113Z,2.50
2022-09-26T17:30:23.389Z,2.28
2022-09-26T17:32:54.774Z,2.65
2022-09-26T17:35:28.255Z,2.35
2022-09-26T17:37:56.961Z,2.15
2022-09-26T17:40:27.572Z,1.95
2022-09-26T17:42:57.632Z,2.28
2022-09-26T17:45:30.479Z,2.13
2022-09-26T17:48:03.444Z,2.47
2022-09-26T17:50:33.430Z,2.83
2022-09-26T17:53:03.695Z,2.53
2022-09-26T17:55:32.305Z,3.40
2022-09-26T17:58:00.681Z,2.20
2022-09-26T18:00:33.196Z,2.60
2022-09-26T18:03:04.387Z,2.47
2022-09-26T18:05:35.344Z,2.60
2022-09-26T18:08:12.931Z,2.80
2022-09-26T18:10:45.817Z,3.00
2022-09-26T18:13:16.357Z,2.50
2022-09-26T18:15:44.633Z,2.58
2022-09-26T18:18:18.218Z,2.47
2022-09-26T18:20:49.253Z,2.17
2022-09-26T18:23:22.022Z,2.00
2022-09-26T18:25:53.096Z,3.15
2022-09-26T18:28:23.716Z,2.92
2022-09-26T18:30:57.831Z,2.80
2022-09-26T18:33:29.662Z,2.53
2022-09-26T18:35:58.706Z,2.83
2022-09-26T18:38:27.008Z,2.53
2022-09-26T18:40:58.726Z,2.47
2022-09-26T18:43:32.035Z,2.88
2022-09-26T18:46:00.570Z,2.75
2022-09-26T18:48:36.364Z,3.08
2022-09-26T18:51:04.934Z,3.55
2022-09-26T18:53:37.405Z,3.35
2022-09-26T18:56:23.945Z,3.55
2022-09-26T18:58:52.532Z,2.88
2022-09-26T19:01:27.636Z,3.45
2022-09-26T19:04:00.113Z,3.30
2022-09-26T19:06:32.195Z,3.17
2022-09-26T19:09:03.620Z,2.97
2022-09-26T19:11:34.689Z,3.10
2022-09-26T19:14:13.020Z,3.00
2022-09-26T19:16:41.343Z,2.88
2022-09-26T19:19:11.814Z,3.15
2022-09-26T19:21:41.915Z,2.83
2022-09-26T19:24:20.374Z,3.35
2022-09-26T19:26:52.645Z,2.33
2022-09-26T19:29:29.094Z,3.33
2022-09-26T19:31:59.149Z,2.72
2022-09-26T19:34:32.687Z,3.28
2022-09-26T19:37:03.957Z,2.78
2022-09-26T19:39:33.058Z,2.60
2022-09-26T19:42:01.724Z,3.00
2022-09-26T19:44:30.163Z,2.50
2022-09-26T19:46:59.904Z,2.90
2022-09-26T19:49:32.053Z,3.65
2022-09-26T19:52:01.366Z,4.30
2022-09-26T19:54:30.146Z,3.63
2022-09-26T19:56:58.982Z,3.30
2022-09-26T19:59:27.873Z,3.42
2022-09-26T20:01:56.651Z,3.83
2022-09-26T20:04:25.316Z,3.88
2022-09-26T20:06:55.179Z,3.40
2022-09-26T20:09:26.333Z,3.45
2022-09-26T20:11:54.627Z,4.35
2022-09-26T20:14:25.791Z,3.95
2022-09-26T20:16:59.645Z,4.15
2022-09-26T20:19:33.398Z,5.75
2022-09-26T20:22:04.250Z,4.18
2022-09-26T20:24:34.589Z,4.20
2022-09-26T20:27:07.191Z,3.45
2022-09-26T20:29:55.946Z,4.28
2022-09-26T20:32:24.173Z,4.50
2022-09-26T20:34:52.559Z,4.68
2022-09-26T20:37:23.897Z,3.60
2022-09-26T20:39:52.981Z,4.00
2022-09-26T20:42:22.290Z,3.20
2022-09-26T20:44:51.252Z,3.60
2022-09-26T20:47:21.650Z,3.63
2022-09-26T20:49:54.368Z,3.80
2022-09-26T20:52:26.051Z,4.15
2022-09-26T20:54:55.366Z,5.38
2022-09-26T20:57:24.051Z,4.47
2022-09-26T20:59:53.108Z,3.83
2022-09-26T21:02:30.040Z,3.70
2022-09-26T21:05:00.898Z,3.47
2022-09-26T21:07:32.628Z,3.53
2022-09-26T21:10:00.894Z,4.32
2022-09-26T21:12:29.940Z,4.50
2022-09-26T21:14:58.279Z,4.20
2022-09-26T21:17:30.973Z,3.88
2022-09-26T21:19:59.377Z,3.10
2022-09-26T21:22:28.558Z,3.28
2022-09-26T21:24:58.409Z,3.33
2022-09-26T21:27:26.845Z,2.95
2022-09-26T21:29:55.040Z,3.33
2022-09-26T21:32:24.732Z,3.10
2022-09-26T21:34:59.362Z,4.18
2022-09-26T21:37:27.729Z,3.40
2022-09-26T21:39:57.565Z,3.22
2022-09-26T21:42:27.301Z,3.22
2022-09-26T21:45:00.675Z,3.83
2022-09-26T21:47:29.402Z,3.35
2022-09-26T21:49:58.048Z,3.00
2022-09-26T21:52:34.131Z,3.50
2022-09-26T21:55:06.399Z,3.45
2022-09-26T21:57:38.774Z,3.80
2022-09-26T22:00:09.782Z,3.35
2022-09-26T22:02:38.532Z,3.33
2022-09-26T22:05:07.471Z,3.35
2022-09-26T22:07:36.055Z,2.95
2022-09-26T22:10:07.190Z,4.00
2022-09-26T22:12:35.657Z,3.72
2022-09-26T22:15:04.065Z,4.07
2022-09-26T22:17:32.623Z,3.50
2022-09-26T22:20:01.443Z,3.70
2022-09-26T22:22:29.783Z,4.00
2022-09-26T22:25:02.715Z,3.60
2022-09-26T22:27:33.321Z,3.45
2022-09-26T22:30:01.667Z,3.42
2022-09-26T22:32:30.100Z,3.63
2022-09-26T22:34:58.314Z,4.30
2022-09-26T22:37:26.770Z,3.67
2022-09-26T22:39:55.060Z,3.58
2022-09-26T22:42:23.333Z,3.17
2022-09-26T22:44:53.052Z,3.90
2022-09-26T22:47:21.285Z,3.28
2022-09-26T22:49:49.784Z,3.47
2022-09-26T22:52:18.538Z,3.65
2022-09-26T22:54:47.180Z,3.40
2022-09-26T22:57:16.753Z,4.63
2022-09-26T22:59:45.287Z,4.45
2022-09-26T23:02:15.430Z,3.88
2022-09-26T23:04:49.289Z,3.58
2022-09-26T23:07:20.343Z,4.22
2022-09-26T23:09:48.675Z,3.20
2022-09-26T23:12:17.271Z,3.47
2022-09-26T23:14:45.835Z,3.28
2022-09-26T23:17:15.619Z,3.65
2022-09-26T23:19:44.204Z,4.32
2022-09-26T23:22:13.656Z,4.07
2022-09-26T23:24:41.998Z,4.32
2022-09-26T23:27:10.546Z,4.05
2022-09-26T23:29:38.800Z,3.67
2022-09-26T23:32:07.164Z,4.38
2022-09-26T23:34:37.013Z,3.80
2022-09-26T23:37:05.258Z,4.30
2022-09-26T23:39:33.630Z,3.53
2022-09-26T23:42:02.745Z,3.60
2022-09-26T23:44:32.389Z,3.35
2022-09-26T23:47:02.733Z,3.10
2022-09-26T23:49:31.071Z,3.47
2022-09-26T23:52:00.909Z,3.03
2022-09-26T23:54:29.409Z,3.78
2022-09-26T23:56:57.666Z,3.25
2022-09-26T23:59:26.149Z,3.08
